Time;durP1;ratioP1;P1;durP2;ratioP2;P2;SDS_P1;SDS_P2;PMS_P1;PMS_P2;Temp;Humidity;BMP_temperature;BMP_pressure;BME280_temperature;BME280_humidity;BME280_pressure;Samples;Min_cycle;Max_cycle;Signal;HPM_P1;HPM_P2
2023/06/20 00:00:58;;;;;;;4.17;3.77;;;21.30;88.30;;;;;;5106555;28;20677;-70
2023/06/20 00:03:26;;;;;;;3.57;3.27;;;21.30;88.10;;;;;;5111396;27;20707;-70
2023/06/20 00:05:53;;;;;;;5.53;3.30;;;21.30;89.30;;;;;;5114401;28;20648;-69
2023/06/20 00:08:20;;;;;;;5.57;4.10;;;21.10;90.00;;;;;;5112805;28;21237;-70
2023/06/20 00:10:46;;;;;;;4.83;4.30;;;21.10;89.50;;;;;;5116671;28;21269;-69
2023/06/20 00:13:13;;;;;;;3.83;3.47;;;21.20;89.20;;;;;;5110950;28;20619;-70
2023/06/20 00:15:41;;;;;;;4.63;4.07;;;21.30;89.40;;;;;;5103649;28;20657;-69
2023/06/20 00:18:08;;;;;;;4.47;4.03;;;21.30;88.30;;;;;;5118099;28;20627;-70
2023/06/20 00:20:36;;;;;;;3.97;3.50;;;21.30;87.90;;;;;;5117816;28;20656;-69
2023/06/20 00:23:03;;;;;;;3.67;3.37;;;21.40;86.90;;;;;;5116126;27;21029;-70
2023/06/20 00:25:30;;;;;;;3.90;3.43;;;21.50;86.60;;;;;;5117698;28;21225;-70
2023/06/20 00:27:57;;;;;;;3.80;3.23;;;21.50;85.90;;;;;;5107103;28;21066;-70
2023/06/20 00:30:23;;;;;;;4.50;3.77;;;21.60;85.40;;;;;;5113542;27;20673;-70
2023/06/20 00:32:50;;;;;;;4.50;4.13;;;21.60;86.00;;;;;;5109676;28;20617;-70
2023/06/20 00:35:17;;;;;;;4.40;3.53;;;21.50;86.90;;;;;;5113223;28;20994;-69
2023/06/20 00:37:45;;;;;;;3.50;3.20;;;21.50;87.80;;;;;;5108168;28;20634;-69
2023/06/20 00:40:12;;;;;;;3.27;2.97;;;21.50;90.20;;;;;;5115931;27;21118;-69
2023/06/20 00:42:39;;;;;;;3.20;2.87;;;21.50;90.50;;;;;;5125367;27;20779;-69
2023/06/20 00:45:32;;;;;;;3.50;3.20;;;21.30;91.90;;;;;;5115567;27;20628;-69
2023/06/20 00:48:00;;;;;;;3.17;2.87;;;21.00;94.70;;;;;;5114998;27;20892;-69
2023/06/20 00:50:28;;;;;;;4.53;3.33;;;20.80;97.40;;;;;;5113687;27;20640;-69
2023/06/20 00:53:01;;;;;;;3.83;3.53;;;20.40;98.80;;;;;;5092965;27;20637;-70
2023/06/20 00:55:31;;;;;;;4.90;3.60;;;20.30;99.90;;;;;;5117655;27;20976;-69
2023/06/20 00:57:58;;;;;;;5.13;3.30;;;20.10;99.90;;;;;;5120179;27;20738;-69
2023/06/20 01:00:26;;;;;;;3.70;3.40;;;20.00;99.90;;;;;;5111292;27;20660;-69
2023/06/20 01:02:57;;;;;;;3.77;2.90;;;19.80;99.90;;;;;;5109792;27;20674;-69
2023/06/20 01:05:27;;;;;;;3.17;2.90;;;19.70;99.90;;;;;;5111553;27;20999;-69
2023/06/20 01:08:04;;;;;;;3.47;2.83;;;19.60;99.90;;;;;;5116674;27;20625;-69
2023/06/20 01:10:41;;;;;;;4.70;3.57;;;19.60;99.90;;;;;;5103663;27;20698;-69
2023/06/20 01:13:18;;;;;;;4.20;3.50;;;19.50;99.90;;;;;;5106159;27;20623;-69
2023/06/20 01:15:53;;;;;;;4.03;2.80;;;19.40;99.90;;;;;;5113584;27;20750;-69
2023/06/20 01:18:30;;;;;;;3.30;3.00;;;19.30;99.90;;;;;;5117535;27;20978;-70
2023/06/20 01:21:07;;;;;;;3.47;3.10;;;19.30;99.90;;;;;;5120299;27;20740;-69
2023/06/20 01:23:40;;;;;;;3.40;3.10;;;19.20;99.90;;;;;;5108292;27;20642;-69
2023/06/20 01:26:13;;;;;;;4.00;3.07;;;19.10;99.90;;;;;;5118409;27;21235;-69
2023/06/20 01:28:46;;;;;;;2.57;2.33;;;19.20;99.90;;;;;;5115495;27;20946;-69
2023/06/20 01:31:14;;;;;;;3.17;2.50;;;19.20;99.90;;;;;;5119808;27;20659;-69
2023/06/20 01:33:49;;;;;;;4.03;2.80;;;19.20;99.90;;;;;;5113581;27;21120;-69
2023/06/20 01:36:21;;;;;;;3.37;2.80;;;19.10;99.90;;;;;;5111474;27;20665;-69
2023/06/20 01:38:54;;;;;;;2.53;2.23;;;19.10;99.90;;;;;;5103505;27;20708;-70
2023/06/20 01:41:25;;;;;;;3.73;3.30;;;19.00;99.90;;;;;;5118689;27;20662;-69
2023/06/20 01:43:55;;;;;;;3.10;2.60;;;19.10;99.90;;;;;;5114092;27;20619;-70
2023/06/20 01:46:24;;;;;;;4.00;3.30;;;19.10;99.90;;;;;;5117444;27;20657;-69
2023/06/20 01:48:52;;;;;;;3.00;2.43;;;18.90;99.90;;;;;;5112048;27;20662;-69
2023/06/20 01:51:20;;;;;;;3.83;2.93;;;18.90;99.90;;;;;;5120681;27;21262;-69
2023/06/20 01:53:51;;;;;;;3.67;2.70;;;19.10;99.90;;;;;;5113141;27;20968;-69
2023/06/20 01:56:19;;;;;;;2.50;2.13;;;19.10;99.90;;;;;;5109685;27;20657;-69
2023/06/20 01:58:47;;;;;;;2.90;2.70;;;19.00;99.90;;;;;;5114351;27;20991;-69
2023/06/20 02:01:16;;;;;;;4.77;3.10;;;18.90;99.90;;;;;;5111794;27;21001;-70
2023/06/20 02:03:45;;;;;;;4.13;2.97;;;18.90;99.90;;;;;;5119379;27;20630;-69
2023/06/20 02:06:14;;;;;;;3.90;2.80;;;18.90;99.90;;;;;;5106295;27;20701;-69
2023/06/20 02:08:41;;;;;;;2.97;2.67;;;19.00;99.90;;;;;;5118154;27;20619;-69
2023/06/20 02:11:11;;;;;;;3.10;2.50;;;19.00;99.90;;;;;;5120537;27;20750;-69
2023/06/20 02:13:38;;;;;;;3.03;2.73;;;19.10;99.90;;;;;;5119747;27;20619;-69
2023/06/20 02:16:08;;;;;;;3.33;2.60;;;19.20;99.90;;;;;;5123793;27;21084;-69
2023/06/20 02:18:35;;;;;;;2.93;2.47;;;19.10;99.90;;;;;;5117308;27;20626;-68
2023/06/20 02:21:07;;;;;;;4.50;2.90;;;19.10;99.90;;;;;;5119658;27;21608;-69
2023/06/20 02:23:35;;;;;;;4.20;2.67;;;19.20;99.90;;;;;;5115814;27;21015;-69
2023/06/20 02:26:07;;;;;;;2.80;2.60;;;19.10;99.90;;;;;;5119126;27;21294;-69
2023/06/20 02:28:40;;;;;;;3.83;2.30;;;18.90;99.90;;;;;;5112795;27;20723;-69
2023/06/20 02:31:10;;;;;;;3.27;2.90;;;18.90;99.90;;;;;;5110513;27;20660;-69
2023/06/20 02:33:41;;;;;;;2.70;2.50;;;19.00;99.90;;;;;;5117146;27;20681;-69
2023/06/20 02:36:09;;;;;;;2.43;2.13;;;19.00;99.90;;;;;;5118553;27;21206;-69
2023/06/20 02:38:38;;;;;;;2.90;2.60;;;18.90;99.90;;;;;;5114698;27;20664;-69
2023/06/20 02:41:05;;;;;;;3.37;2.70;;;18.90;99.90;;;;;;5111292;27;20698;-69
2023/06/20 02:43:34;;;;;;;3.57;2.80;;;19.00;99.90;;;;;;5112825;27;20671;-69
2023/06/20 02:46:10;;;;;;;4.10;2.87;;;18.80;99.90;;;;;;5116038;27;20689;-69
2023/06/20 02:48:46;;;;;;;3.53;3.23;;;18.60;99.90;;;;;;5118819;27;20657;-69
2023/06/20 02:51:23;;;;;;;3.53;2.93;;;18.70;99.90;;;;;;5119921;27;20635;-69
2023/06/20 02:53:58;;;;;;;3.10;2.70;;;18.50;99.90;;;;;;5103417;27;20631;-69
2023/06/20 02:56:29;;;;;;;3.27;2.90;;;18.60;99.90;;;;;;5118104;27;21278;-69
2023/06/20 02:59:01;;;;;;;3.97;3.10;;;18.70;99.90;;;;;;5115537;27;20623;-69
2023/06/20 03:01:32;;;;;;;3.10;2.63;;;18.70;99.90;;;;;;5114037;27;21086;-69
2023/06/20 03:04:04;;;;;;;3.83;2.77;;;18.80;99.90;;;;;;5093556;27;20638;-69
2023/06/20 03:06:32;;;;;;;3.20;2.70;;;18.70;99.90;;;;;;5105443;27;20640;-69
2023/06/20 03:09:02;;;;;;;3.43;3.10;;;18.50;99.90;;;;;;5103909;27;20628;-68
2023/06/20 03:11:31;;;;;;;2.90;2.60;;;18.50;99.90;;;;;;5111503;27;20645;-68
2023/06/20 03:14:01;;;;;;;2.97;2.03;;;18.50;99.90;;;;;;5112229;27;20628;-68
2023/06/20 03:16:30;;;;;;;2.93;2.70;;;18.50;99.90;;;;;;5119426;27;21291;-70
2023/06/20 03:18:58;;;;;;;3.07;2.50;;;18.40;99.90;;;;;;5115416;27;20627;-69
2023/06/20 03:21:27;;;;;;;3.43;2.50;;;18.40;99.90;;;;;;5109149;28;21063;-69
2023/06/20 03:23:54;;;;;;;2.50;2.30;;;18.30;99.90;;;;;;5116613;27;20666;-69
2023/06/20 03:26:21;;;;;;;3.00;2.80;;;18.30;99.90;;;;;;5119609;28;20643;-68
2023/06/20 03:28:48;;;;;;;2.67;2.47;;;18.20;99.90;;;;;;5112605;28;20723;-70
2023/06/20 03:31:16;;;;;;;3.77;2.60;;;18.30;99.90;;;;;;5116808;28;20669;-69
2023/06/20 03:33:42;;;;;;;3.33;2.80;;;18.20;99.90;;;;;;5114417;28;20739;-69
2023/06/20 03:36:10;;;;;;;3.33;2.77;;;18.20;99.90;;;;;;5116625;28;20739;-69
2023/06/20 03:38:37;;;;;;;2.73;2.53;;;18.30;99.90;;;;;;5110639;28;21115;-69
2023/06/20 03:41:04;;;;;;;3.20;2.90;;;18.40;99.90;;;;;;5116076;28;20742;-69
2023/06/20 03:43:31;;;;;;;3.60;3.17;;;18.50;99.90;;;;;;5116921;27;20656;-69
2023/06/20 03:45:58;;;;;;;3.80;3.23;;;18.40;99.90;;;;;;5113334;28;20652;-69
2023/06/20 03:48:26;;;;;;;3.63;3.00;;;18.40;99.90;;;;;;5110362;28;20627;-68
2023/06/20 03:50:52;;;;;;;3.63;2.70;;;18.40;99.90;;;;;;5118779;27;20643;-68
2023/06/20 03:53:19;;;;;;;2.80;2.60;;;18.50;99.90;;;;;;5103732;28;20631;-69
2023/06/20 03:55:46;;;;;;;3.40;2.90;;;18.50;99.90;;;;;;5118808;28;20651;-69
2023/06/20 03:58:13;;;;;;;2.33;2.13;;;18.50;99.90;;;;;;5109686;28;20627;-69
2023/06/20 04:00:40;;;;;;;3.90;2.83;;;18.50;99.90;;;;;;5096760;27;20653;-69
2023/06/20 04:03:06;;;;;;;3.00;2.27;;;18.60;99.90;;;;;;5117897;28;20661;-69
2023/06/20 04:05:34;;;;;;;4.27;2.63;;;18.60;99.90;;;;;;5115216;27;20754;-69
2023/06/20 04:08:01;;;;;;;2.77;2.57;;;18.60;99.90;;;;;;5113299;28;20975;-69
2023/06/20 04:10:28;;;;;;;2.93;2.73;;;18.60;99.90;;;;;;5113712;28;20648;-70
2023/06/20 04:12:55;;;;;;;4.40;3.47;;;18.50;99.90;;;;;;5118152;27;20622;-70
2023/06/20 04:15:22;;;;;;;5.13;3.83;;;18.60;99.90;;;;;;5119053;27;20647;-70
2023/06/20 04:17:49;;;;;;;3.40;2.87;;;18.70;99.90;;;;;;5121671;27;21193;-71
2023/06/20 04:20:15;;;;;;;2.57;2.37;;;18.80;99.90;;;;;;5119035;27;21172;-70
2023/06/20 04:22:45;;;;;;;2.80;2.47;;;18.80;99.90;;;;;;5119724;27;20750;-70
2023/06/20 04:25:12;;;;;;;3.20;3.00;;;18.90;99.90;;;;;;5121253;27;20707;-70
2023/06/20 04:27:39;;;;;;;3.03;2.73;;;18.90;99.90;;;;;;5119536;27;20621;-70
2023/06/20 04:30:07;;;;;;;4.00;3.67;;;19.00;99.90;;;;;;5119878;27;20661;-70
2023/06/20 04:32:34;;;;;;;3.00;2.50;;;19.00;99.90;;;;;;5118654;27;20614;-70
2023/06/20 04:35:01;;;;;;;5.20;4.70;;;18.90;99.90;;;;;;5121918;27;20631;-70
2023/06/20 04:37:29;;;;;;;6.63;5.37;;;18.90;99.90;;;;;;5113080;27;20818;-70
2023/06/20 04:39:58;;;;;;;8.47;5.97;;;19.00;99.90;;;;;;5109024;27;20641;-70
2023/06/20 04:42:24;;;;;;;5.80;4.70;;;18.90;99.90;;;;;;5120063;27;20657;-70
2023/06/20 04:44:51;;;;;;;4.37;3.90;;;19.10;99.90;;;;;;5117380;27;20620;-70
2023/06/20 04:47:18;;;;;;;3.47;3.17;;;19.10;99.90;;;;;;5114434;27;21316;-70
2023/06/20 04:49:45;;;;;;;4.10;3.80;;;19.30;99.90;;;;;;5106955;27;20654;-70
2023/06/20 04:52:12;;;;;;;5.77;3.37;;;19.30;99.90;;;;;;5108045;27;21200;-70
2023/06/20 04:54:39;;;;;;;3.10;2.80;;;19.30;99.90;;;;;;5108001;27;20643;-70
2023/06/20 04:57:07;;;;;;;3.83;3.43;;;19.30;99.90;;;;;;5117911;27;21224;-70
2023/06/20 04:59:35;;;;;;;4.00;2.77;;;19.40;99.90;;;;;;5115085;27;20619;-70
2023/06/20 05:02:04;;;;;;;2.53;2.23;;;19.50;99.90;;;;;;5124185;27;20732;-70
2023/06/20 05:04:31;;;;;;;3.73;2.70;;;19.50;99.90;;;;;;5108252;27;21188;-71
2023/06/20 05:07:00;;;;;;;4.03;2.90;;;19.50;99.90;;;;;;5099851;27;20661;-70
2023/06/20 05:09:27;;;;;;;2.90;2.57;;;19.60;99.90;;;;;;5120920;27;20611;-71
2023/06/20 05:11:54;;;;;;;3.10;2.80;;;19.60;99.90;;;;;;5118256;27;20655;-71
2023/06/20 05:14:22;;;;;;;3.17;2.67;;;19.50;99.90;;;;;;5115963;27;20615;-71
2023/06/20 05:16:49;;;;;;;6.37;3.10;;;19.50;99.90;;;;;;5118129;27;21223;-72
2023/06/20 05:19:15;;;;;;;3.47;3.17;;;19.50;99.90;;;;;;5112150;27;21041;-72
2023/06/20 05:21:42;;;;;;;3.07;2.70;;;19.40;99.90;;;;;;5118324;27;20652;-72
2023/06/20 05:24:09;;;;;;;3.40;2.80;;;19.60;99.90;;;;;;5116036;27;20659;-72
2023/06/20 05:26:36;;;;;;;3.00;2.63;;;19.60;99.90;;;;;;5115481;27;20662;-72
2023/06/20 05:29:03;;;;;;;1.67;1.57;;;19.80;99.90;;;;;;5113068;27;20632;-72
2023/06/20 05:31:35;;;;;;;2.40;2.20;;;19.90;99.90;;;;;;5113459;27;20662;-72
2023/06/20 05:34:03;;;;;;;2.37;2.17;;;20.00;99.90;;;;;;5106138;27;20719;-72
2023/06/20 05:36:30;;;;;;;3.57;2.53;;;20.00;99.90;;;;;;5113887;27;20860;-72
2023/06/20 05:38:58;;;;;;;2.53;2.33;;;19.90;99.90;;;;;;5116684;27;20632;-72
2023/06/20 05:41:25;;;;;;;3.40;3.00;;;19.90;99.90;;;;;;5115349;27;21003;-72
2023/06/20 05:43:52;;;;;;;3.13;2.60;;;19.80;99.90;;;;;;5120847;27;20662;-72
2023/06/20 05:46:18;;;;;;;2.73;2.53;;;19.90;99.90;;;;;;5112891;27;21163;-71
2023/06/20 05:48:48;;;;;;;2.20;2.00;;;20.00;99.90;;;;;;5108483;27;20624;-70
2023/06/20 05:51:15;;;;;;;2.73;2.53;;;19.90;99.90;;;;;;5114826;27;20659;-70
2023/06/20 05:53:42;;;;;;;2.63;2.10;;;19.90;99.90;;;;;;5105414;27;20627;-70
2023/06/20 05:56:09;;;;;;;3.42;2.88;;;19.90;99.90;;;;;;5112219;27;20746;-71
2023/06/20 05:58:37;;;;;;;3.07;2.80;;;20.10;99.90;;;;;;5116652;27;20203;-71
2023/06/20 06:01:04;;;;;;;3.30;2.30;;;20.30;99.90;;;;;;5110003;27;20644;-70
2023/06/20 06:03:33;;;;;;;2.63;2.33;;;20.40;99.90;;;;;;5110162;27;21053;-70
2023/06/20 06:06:03;;;;;;;2.83;2.53;;;20.50;99.90;;;;;;5119742;27;20644;-68
2023/06/20 06:08:30;;;;;;;2.30;2.00;;;20.50;99.90;;;;;;5102151;27;21023;-68
2023/06/20 06:10:57;;;;;;;3.20;2.47;;;20.60;99.90;;;;;;5117326;27;20643;-68
2023/06/20 06:13:24;;;;;;;2.50;2.30;;;20.70;99.90;;;;;;5112498;27;20661;-68
2023/06/20 06:15:50;;;;;;;2.30;2.20;;;20.70;99.90;;;;;;5115846;27;21247;-68
2023/06/20 06:18:17;;;;;;;3.80;3.10;;;20.70;99.90;;;;;;5118056;27;20615;-67
2023/06/20 06:20:44;;;;;;;4.90;2.80;;;20.90;99.90;;;;;;5108755;27;20655;-68
2023/06/20 06:23:13;;;;;;;3.67;2.63;;;20.80;99.90;;;;;;5119972;27;20674;-68
2023/06/20 06:25:39;;;;;;;3.33;2.67;;;20.80;99.90;;;;;;5118858;27;20655;-68
2023/06/20 06:28:06;;;;;;;2.90;2.20;;;21.00;99.90;;;;;;5118689;27;20630;-67
2023/06/20 06:30:33;;;;;;;3.70;2.43;;;21.00;99.90;;;;;;5116102;27;20664;-68
2023/06/20 06:33:01;;;;;;;2.87;2.60;;;21.00;99.90;;;;;;5116149;27;20620;-67
2023/06/20 06:35:30;;;;;;;2.80;2.60;;;21.10;99.90;;;;;;5119763;27;20654;-68
2023/06/20 06:37:57;;;;;;;3.07;2.87;;;21.20;99.90;;;;;;5120297;27;20630;-68
2023/06/20 06:40:26;;;;;;;3.10;2.50;;;21.40;99.90;;;;;;5116005;27;20639;-68
2023/06/20 06:42:53;;;;;;;3.07;2.87;;;21.40;99.90;;;;;;5116597;27;20620;-68
2023/06/20 06:45:20;;;;;;;2.90;2.60;;;21.50;99.90;;;;;;5116800;27;20658;-68
2023/06/20 06:47:46;;;;;;;2.87;2.67;;;21.60;99.90;;;;;;5119987;27;20611;-68
2023/06/20 06:50:13;;;;;;;4.17;3.77;;;21.60;99.90;;;;;;5119334;27;20617;-68
2023/06/20 06:52:41;;;;;;;3.27;2.53;;;21.60;99.90;;;;;;5116698;27;20715;-68
2023/06/20 06:55:08;;;;;;;3.07;2.47;;;21.70;99.90;;;;;;5116529;27;20620;-68
2023/06/20 06:57:36;;;;;;;5.00;2.70;;;21.90;99.90;;;;;;5118333;27;20959;-68
2023/06/20 07:00:09;;;;;;;3.60;3.17;;;21.70;99.90;;;;;;5118388;27;20626;-69
2023/06/20 07:02:36;;;;;;;3.47;3.10;;;21.70;99.90;;;;;;5118866;27;20620;-68
2023/06/20 07:05:04;;;;;;;2.90;2.60;;;21.80;99.90;;;;;;5116743;27;20668;-69
2023/06/20 07:07:31;;;;;;;3.33;3.03;;;21.90;99.90;;;;;;5115302;27;20628;-69
2023/06/20 07:09:58;;;;;;;3.13;2.83;;;22.10;99.90;;;;;;5118907;27;20628;-69
2023/06/20 07:12:25;;;;;;;2.70;2.50;;;22.20;99.90;;;;;;5119370;27;20657;-69
2023/06/20 07:14:56;;;;;;;4.33;3.27;;;22.40;99.90;;;;;;5117006;27;20629;-68
2023/06/20 07:17:23;;;;;;;3.03;2.83;;;22.50;99.90;;;;;;5116353;27;20648;-69
2023/06/20 07:19:50;;;;;;;3.37;3.13;;;22.50;99.90;;;;;;5116107;27;20624;-69
2023/06/20 07:22:17;;;;;;;6.97;3.37;;;22.40;99.90;;;;;;5118893;27;20998;-69
2023/06/20 07:24:44;;;;;;;3.40;2.77;;;22.50;99.90;;;;;;5119303;27;20765;-69
2023/06/20 07:27:10;;;;;;;2.83;2.63;;;22.60;99.90;;;;;;5116429;28;21005;-69
2023/06/20 07:29:38;;;;;;;3.40;2.70;;;22.90;99.90;;;;;;5115419;28;21199;-69
2023/06/20 07:32:07;;;;;;;3.60;3.10;;;23.00;99.90;;;;;;5116609;28;20679;-69
2023/06/20 07:34:33;;;;;;;3.43;3.13;;;23.10;99.90;;;;;;5119471;28;21006;-69
2023/06/20 07:37:00;;;;;;;4.90;3.40;;;23.20;99.90;;;;;;5118949;28;20650;-69
2023/06/20 07:39:27;;;;;;;2.80;2.60;;;23.40;99.90;;;;;;5114097;28;21179;-70
2023/06/20 07:41:54;;;;;;;4.07;3.77;;;23.50;99.90;;;;;;5121342;27;20991;-69
2023/06/20 07:44:21;;;;;;;3.20;3.00;;;23.70;99.40;;;;;;5117496;28;20663;-69
2023/06/20 07:46:48;;;;;;;3.87;3.20;;;23.70;99.60;;;;;;5116691;28;20660;-69
2023/06/20 07:49:16;;;;;;;3.30;2.97;;;23.70;99.00;;;;;;5119510;27;20636;-69
2023/06/20 07:51:45;;;;;;;3.10;2.90;;;23.80;98.80;;;;;;5111762;27;20675;-70
2023/06/20 07:54:14;;;;;;;3.13;2.83;;;23.80;98.50;;;;;;5119577;27;20620;-69
2023/06/20 07:56:40;;;;;;;5.93;3.87;;;23.80;98.70;;;;;;5122142;27;20648;-69
2023/06/20 07:59:07;;;;;;;3.60;2.67;;;23.90;99.00;;;;;;5117299;27;20683;-70
2023/06/20 08:01:34;;;;;;;3.70;3.00;;;24.00;98.50;;;;;;5120409;27;20644;-70
2023/06/20 08:04:01;;;;;;;2.70;2.43;;;24.10;99.00;;;;;;5122097;27;20690;-70
2023/06/20 08:06:29;;;;;;;3.50;2.97;;;23.80;98.60;;;;;;5122070;27;21225;-71
2023/06/20 08:08:56;;;;;;;4.10;3.40;;;23.90;98.60;;;;;;5118152;27;20617;-70
2023/06/20 08:11:23;;;;;;;4.10;3.60;;;24.10;98.20;;;;;;5119482;27;20644;-70
2023/06/20 08:13:50;;;;;;;3.57;3.27;;;24.30;97.70;;;;;;5120563;27;20621;-69
2023/06/20 08:16:17;;;;;;;3.40;2.67;;;24.30;97.50;;;;;;5122329;27;20727;-69
2023/06/20 08:18:44;;;;;;;5.80;3.40;;;24.50;98.00;;;;;;5122444;27;21123;-70
2023/06/20 08:21:11;;;;;;;4.40;3.63;;;24.50;98.10;;;;;;5110179;27;20650;-69
2023/06/20 08:23:39;;;;;;;3.03;2.83;;;24.10;97.30;;;;;;5119403;27;20686;-69
2023/06/20 08:26:06;;;;;;;3.37;3.07;;;24.00;97.70;;;;;;5121276;27;21139;-69
2023/06/20 08:28:33;;;;;;;3.53;3.20;;;23.90;98.40;;;;;;5122723;27;20623;-70
2023/06/20 08:30:59;;;;;;;4.43;3.27;;;24.30;97.50;;;;;;5120597;27;20662;-70
2023/06/20 08:33:26;;;;;;;3.50;3.20;;;24.50;97.80;;;;;;5119142;27;20624;-70
2023/06/20 08:35:54;;;;;;;3.50;3.20;;;24.70;96.20;;;;;;5118798;27;21028;-69
2023/06/20 08:38:20;;;;;;;3.80;3.07;;;24.90;95.70;;;;;;5121165;27;20620;-72
2023/06/20 08:40:49;;;;;;;6.33;4.50;;;25.10;95.80;;;;;;5121668;27;20658;-69
2023/06/20 08:43:17;;;;;;;3.70;3.40;;;25.10;95.50;;;;;;5120746;27;21206;-69
2023/06/20 08:45:44;;;;;;;3.57;3.27;;;25.40;94.40;;;;;;5122220;27;20647;-69
2023/06/20 08:48:10;;;;;;;4.00;3.60;;;25.50;94.20;;;;;;5122074;27;20611;-69
2023/06/20 08:50:38;;;;;;;4.40;3.83;;;25.70;92.80;;;;;;5117974;27;21298;-69
2023/06/20 08:53:07;;;;;;;3.80;3.50;;;25.80;93.70;;;;;;5119017;27;20619;-69
2023/06/20 08:55:35;;;;;;;3.87;3.40;;;25.70;93.00;;;;;;5120290;27;20644;-69
2023/06/20 08:58:07;;;;;;;6.43;4.07;;;25.50;94.00;;;;;;5122280;27;20623;-69
2023/06/20 09:00:34;;;;;;;3.90;2.90;;;25.60;93.20;;;;;;5120351;27;20966;-69
2023/06/20 09:03:01;;;;;;;3.53;3.07;;;25.70;92.50;;;;;;5118085;27;21058;-69
2023/06/20 09:05:32;;;;;;;4.13;3.43;;;25.90;92.50;;;;;;5118619;27;20675;-69
2023/06/20 09:07:58;;;;;;;2.60;2.47;;;26.10;91.60;;;;;;5110554;27;20628;-69
2023/06/20 09:10:26;;;;;;;4.30;3.40;;;26.20;92.30;;;;;;5117739;27;20650;-69
2023/06/20 09:12:56;;;;;;;6.80;3.83;;;26.30;91.90;;;;;;5120141;27;20952;-69
2023/06/20 09:15:26;;;;;;;4.90;3.50;;;26.60;91.20;;;;;;5120973;27;20643;-70
2023/06/20 09:17:53;;;;;;;3.57;3.27;;;26.80;90.00;;;;;;5120519;27;20992;-69
2023/06/20 09:20:21;;;;;;;4.00;3.37;;;27.00;90.20;;;;;;5117808;27;20978;-69
2023/06/20 09:22:48;;;;;;;3.30;3.00;;;27.20;86.60;;;;;;5118429;27;20624;-69
2023/06/20 09:25:21;;;;;;;3.40;3.10;;;27.30;87.10;;;;;;5109612;27;20665;-69
2023/06/20 09:27:48;;;;;;;3.20;3.00;;;27.20;88.00;;;;;;5117707;27;20663;-70
2023/06/20 09:30:15;;;;;;;3.80;2.80;;;27.30;86.00;;;;;;5119809;27;20633;-69
2023/06/20 09:32:44;;;;;;;3.30;2.80;;;27.50;83.70;;;;;;5121419;27;20631;-69
2023/06/20 09:35:11;;;;;;;3.47;3.17;;;27.50;84.40;;;;;;5119951;27;20626;-69
2023/06/20 09:37:42;;;;;;;4.00;3.60;;;27.80;81.80;;;;;;5116754;27;20637;-69
2023/06/20 09:40:10;;;;;;;5.13;3.30;;;27.80;80.60;;;;;;5117869;27;20827;-69
2023/06/20 09:42:38;;;;;;;5.07;4.23;;;28.00;79.90;;;;;;5124262;27;20718;-69
2023/06/20 09:45:06;;;;;;;3.17;2.87;;;28.10;79.20;;;;;;5117618;27;20666;-70
2023/06/20 09:47:35;;;;;;;3.43;3.13;;;28.20;77.30;;;;;;5120943;27;20680;-69
2023/06/20 09:50:06;;;;;;;4.23;3.17;;;28.30;76.00;;;;;;5120745;27;21115;-69
2023/06/20 09:52:37;;;;;;;4.60;4.20;;;28.30;75.30;;;;;;5118633;27;20630;-69
2023/06/20 09:55:09;;;;;;;3.53;3.20;;;28.40;76.20;;;;;;5116662;27;20952;-69
2023/06/20 09:57:43;;;;;;;4.17;3.80;;;28.50;76.60;;;;;;5119738;27;20634;-70
2023/06/20 10:00:14;;;;;;;4.20;3.60;;;28.70;76.80;;;;;;5119658;27;20628;-69
2023/06/20 10:02:44;;;;;;;2.83;2.63;;;28.60;73.40;;;;;;5119038;27;20629;-69
2023/06/20 10:05:14;;;;;;;3.83;3.53;;;28.50;73.50;;;;;;5117314;27;20670;-70
2023/06/20 10:07:42;;;;;;;4.63;3.67;;;28.70;73.90;;;;;;5118037;27;20723;-70
2023/06/20 10:10:09;;;;;;;3.47;3.07;;;28.70;70.70;;;;;;5119342;27;21292;-69
2023/06/20 10:12:37;;;;;;;3.77;3.40;;;28.90;72.60;;;;;;5120504;27;20722;-69
2023/06/20 10:15:07;;;;;;;3.97;3.33;;;28.70;71.90;;;;;;5108811;27;20750;-70
2023/06/20 10:17:36;;;;;;;3.20;3.00;;;28.70;71.10;;;;;;5117388;27;20626;-69
2023/06/20 10:20:07;;;;;;;3.17;2.93;;;29.00;70.00;;;;;;5118394;27;20623;-69
2023/06/20 10:22:37;;;;;;;3.53;3.23;;;29.20;71.60;;;;;;5120314;27;20609;-69
2023/06/20 10:25:12;;;;;;;5.03;3.43;;;29.50;69.40;;;;;;5118107;27;20677;-69
2023/06/20 10:27:43;;;;;;;4.53;2.87;;;29.60;65.30;;;;;;5116706;27;21231;-70
2023/06/20 10:30:12;;;;;;;3.17;2.73;;;29.70;65.20;;;;;;5118028;27;20640;-69
2023/06/20 10:33:10;;;;;;;3.53;3.23;;;29.80;66.70;;;;;;5085528;27;20734;-71
2023/06/20 10:35:48;;;;;;;3.40;3.10;;;30.00;65.40;;;;;;5068843;27;20739;-69
2023/06/20 10:38:15;;;;;;;3.43;2.80;;;30.20;68.10;;;;;;5102902;27;20615;-70
2023/06/20 10:40:42;;;;;;;3.63;3.33;;;30.20;65.90;;;;;;5096028;27;20654;-70
2023/06/20 10:43:15;;;;;;;3.50;3.20;;;29.90;65.20;;;;;;5095255;27;20618;-71
2023/06/20 10:45:52;;;;;;;3.43;3.13;;;29.90;63.80;;;;;;5096647;27;20661;-70
2023/06/20 10:48:21;;;;;;;3.33;3.03;;;30.30;63.90;;;;;;5100243;27;21073;-70
2023/06/20 10:50:48;;;;;;;4.23;3.83;;;30.60;62.10;;;;;;5107847;27;20712;-70
2023/06/20 10:53:15;;;;;;;4.13;3.73;;;30.90;61.20;;;;;;5108983;27;20625;-70
2023/06/20 10:55:42;;;;;;;3.90;3.53;;;31.30;59.10;;;;;;5096932;27;20658;-69
2023/06/20 10:58:09;;;;;;;4.00;3.63;;;31.40;58.50;;;;;;5096207;27;20734;-71
2023/06/20 11:00:35;;;;;;;3.83;3.43;;;31.40;57.40;;;;;;5063087;27;20661;-69
2023/06/20 11:03:02;;;;;;;3.67;3.37;;;31.40;57.10;;;;;;5109487;27;20722;-70
2023/06/20 11:05:30;;;;;;;4.07;3.07;;;31.60;56.80;;;;;;5109741;27;20635;-70
2023/06/20 11:07:59;;;;;;;3.23;3.03;;;31.70;56.30;;;;;;5065062;27;20722;-71
2023/06/20 11:10:30;;;;;;;3.20;2.90;;;31.40;54.00;;;;;;5108631;27;21369;-70
2023/06/20 11:12:58;;;;;;;3.33;2.90;;;31.20;54.20;;;;;;5098649;27;20615;-70
2023/06/20 11:15:28;;;;;;;3.10;2.90;;;31.60;54.30;;;;;;5095999;27;20741;-69
2023/06/20 11:17:56;;;;;;;3.27;2.97;;;32.00;53.30;;;;;;5101893;27;20618;-70
2023/06/20 11:20:24;;;;;;;3.03;2.83;;;32.10;52.60;;;;;;5108237;27;20618;-70
2023/06/20 11:22:55;;;;;;;4.20;3.70;;;32.30;53.30;;;;;;5107458;27;20625;-70
2023/06/20 11:25:29;;;;;;;3.00;2.80;;;32.40;54.80;;;;;;5096414;27;20653;-70
2023/06/20 11:28:04;;;;;;;3.63;3.30;;;32.30;52.90;;;;;;5097246;27;20621;-70
2023/06/20 11:30:33;;;;;;;6.17;3.63;;;32.30;53.00;;;;;;5109029;27;20719;-70
2023/06/20 11:33:01;;;;;;;3.80;3.40;;;32.50;55.00;;;;;;5108120;27;20669;-70
2023/06/20 11:35:49;;;;;;;3.50;3.20;;;32.80;55.50;;;;;;5096103;27;20650;-69
2023/06/20 11:38:20;;;;;;;4.00;3.20;;;32.90;52.60;;;;;;5103484;27;20622;-70
2023/06/20 11:40:50;;;;;;;4.60;3.23;;;33.00;51.10;;;;;;5108956;27;20781;-70
2023/06/20 11:43:27;;;;;;;3.10;2.90;;;33.60;53.00;;;;;;5091605;27;20663;-71
2023/06/20 11:45:59;;;;;;;5.87;3.30;;;33.80;52.00;;;;;;5082491;27;20655;-70
2023/06/20 11:48:27;;;;;;;3.67;3.37;;;33.90;51.20;;;;;;5089683;27;20626;-70
2023/06/20 11:50:58;;;;;;;3.87;3.57;;;33.90;51.20;;;;;;5094998;27;20754;-70
2023/06/20 11:53:29;;;;;;;3.40;3.10;;;33.90;51.20;;;;;;5091782;27;21007;-70
2023/06/20 11:55:57;;;;;;;4.70;3.80;;;33.90;50.60;;;;;;5081310;27;20635;-70
2023/06/20 11:58:26;;;;;;;4.20;3.80;;;33.70;54.80;;;;;;5081972;27;21070;-71
2023/06/20 12:01:04;;;;;;;4.00;3.63;;;34.10;50.10;;;;;;5056019;27;20651;-70
2023/06/20 12:03:31;;;;;;;3.47;3.20;;;34.60;49.30;;;;;;5093888;27;20725;-70
2023/06/20 12:05:58;;;;;;;3.70;3.40;;;35.20;49.50;;;;;;5080447;27;20651;-70
2023/06/20 12:08:33;;;;;;;3.90;3.60;;;36.30;46.90;;;;;;5080738;27;20719;-68
2023/06/20 12:11:02;;;;;;;3.80;3.50;;;36.50;49.20;;;;;;5042839;27;20669;-67
2023/06/20 12:13:32;;;;;;;3.07;2.87;;;36.70;47.30;;;;;;5094748;27;20879;-69
2023/06/20 12:15:59;;;;;;;3.90;3.57;;;37.40;47.10;;;;;;5084000;27;20646;-68
2023/06/20 12:18:25;;;;;;;3.67;3.37;;;38.50;45.90;;;;;;5081420;27;20622;-69
2023/06/20 12:20:52;;;;;;;3.13;2.93;;;38.80;43.00;;;;;;5084270;27;20261;-68
2023/06/20 12:23:19;;;;;;;3.60;3.40;;;38.60;43.40;;;;;;5095019;27;20556;-69
2023/06/20 12:25:48;;;;;;;3.85;3.55;;;38.10;43.70;;;;;;5094955;27;20237;-68
2023/06/20 12:28:15;;;;;;;4.13;3.80;;;38.30;45.50;;;;;;5081926;27;20649;-69
2023/06/20 12:30:42;;;;;;;3.20;3.00;;;38.50;45.40;;;;;;5080166;27;20231;-68
2023/06/20 12:33:10;;;;;;;3.70;3.40;;;38.70;42.60;;;;;;5087745;27;20420;-71
2023/06/20 12:35:38;;;;;;;3.28;3.08;;;38.70;42.50;;;;;;5093961;27;20943;-70
2023/06/20 12:38:04;;;;;;;4.15;3.75;;;39.40;42.20;;;;;;5093797;27;20205;-70
2023/06/20 12:40:31;;;;;;;3.80;3.60;;;39.70;42.20;;;;;;5080412;27;20507;-70
2023/06/20 12:43:00;;;;;;;4.32;3.92;;;39.80;40.70;;;;;;5074927;27;20196;-69
2023/06/20 12:45:26;;;;;;;3.90;3.60;;;40.60;40.30;;;;;;5084188;27;20219;-70
2023/06/20 12:47:53;;;;;;;4.22;3.92;;;40.30;40.90;;;;;;5080459;27;20195;-70
2023/06/20 12:50:20;;;;;;;4.80;4.40;;;40.40;41.00;;;;;;5084098;27;20203;-70
2023/06/20 12:52:47;;;;;;;3.63;3.33;;;40.30;39.10;;;;;;5093901;27;20224;-70
2023/06/20 12:55:14;;;;;;;3.92;3.63;;;39.60;40.60;;;;;;5093381;27;20215;-69